Time;durP1;ratioP1;P1;durP2;ratioP2;P2;SDS_P1;SDS_P2;PMS_P1;PMS_P2;Temp;Humidity;BMP_temperature;BMP_pressure;BME280_temperature;BME280_humidity;BME280_pressure;Samples;Min_cycle;Max_cycle;Signal;HPM_P1;HPM_P2
2023/12/24 00:01:48;;;;;;;2.85;1.60;;;;;;;8.06;70.39;96770.63;1225197;75;2911425;-68
2023/12/24 00:04:20;;;;;;;2.75;1.65;;;;;;;7.97;70.92;96803.47;1221541;75;2920384;-68
2023/12/24 00:06:53;;;;;;;3.15;1.70;;;;;;;7.64;73.52;96772.63;1225544;75;2890293;-68
2023/12/24 00:09:29;;;;;;;6.15;4.15;;;;;;;7.41;75.72;96773.59;1223746;75;2916834;-67
2023/12/24 00:12:02;;;;;;;8.10;4.90;;;;;;;7.72;74.40;96789.31;1221294;75;2906304;-68
2023/12/24 00:14:34;;;;;;;7.30;4.45;;;;;;;7.81;75.15;96799.31;1223405;75;2919478;-67
2023/12/24 00:17:07;;;;;;;7.15;3.80;;;;;;;7.35;77.88;96798.00;1224941;75;2915953;-67
2023/12/24 00:19:40;;;;;;;3.30;2.15;;;;;;;7.33;76.93;96792.28;1223145;75;2926420;-64
2023/12/24 00:22:13;;;;;;;3.30;1.90;;;;;;;7.67;75.24;96806.31;1224590;75;2916952;-65
2023/12/24 00:24:49;;;;;;;3.10;1.60;;;;;;;7.77;74.22;96807.69;1224198;75;2916711;-67
2023/12/24 00:27:22;;;;;;;1.80;1.30;;;;;;;7.86;72.90;96810.28;1223284;75;2919828;-68
2023/12/24 00:29:55;;;;;;;2.35;1.30;;;;;;;7.94;73.06;96815.31;1223860;75;2920453;-66
2023/12/24 00:32:27;;;;;;;2.45;1.50;;;;;;;7.68;74.38;96821.44;1223484;75;2924747;-68
2023/12/24 00:35:00;;;;;;;1.55;1.00;;;;;;;7.96;72.79;96813.63;1224847;75;2917511;-68
2023/12/24 00:37:33;;;;;;;0.90;0.70;;;;;;;7.88;71.76;96817.97;1223508;75;2939381;-65
2023/12/24 00:40:10;;;;;;;1.10;0.80;;;;;;;7.86;74.10;96821.19;1224831;75;2922551;-68
2023/12/24 00:42:43;;;;;;;1.60;0.80;;;;;;;7.76;74.10;96811.63;1222866;75;2910330;-67
2023/12/24 00:45:17;;;;;;;0.70;0.60;;;;;;;7.57;74.74;96811.16;1225892;75;2910082;-66
2023/12/24 00:47:50;;;;;;;1.05;0.70;;;;;;;7.36;75.80;96813.13;1223196;75;2915020;-67
2023/12/24 00:50:23;;;;;;;1.75;0.80;;;;;;;7.31;77.40;96811.09;1225582;75;2924798;-66
2023/12/24 00:52:56;;;;;;;1.15;0.90;;;;;;;7.50;75.72;96810.81;1222387;75;2911279;-70
2023/12/24 00:55:31;;;;;;;1.35;0.85;;;;;;;7.65;74.79;96828.59;1224351;75;2913633;-67
2023/12/24 00:58:04;;;;;;;2.45;0.90;;;;;;;7.50;74.56;96817.00;1222910;75;2914507;-68
2023/12/24 01:00:37;;;;;;;1.85;1.10;;;;;;;7.77;73.27;96820.56;1225081;75;2928798;-69
2023/12/24 01:03:09;;;;;;;1.10;0.80;;;;;;;7.40;75.69;96827.28;1223326;75;2929312;-68
2023/12/24 01:05:43;;;;;;;0.90;0.70;;;;;;;7.34;76.61;96834.63;1225296;75;2916167;-68
2023/12/24 01:08:16;;;;;;;0.90;0.70;;;;;;;7.48;76.89;96843.97;1222529;75;2913324;-67
2023/12/24 01:10:52;;;;;;;1.45;0.80;;;;;;;7.57;75.39;96851.25;1225765;75;2922401;-67
2023/12/24 01:13:25;;;;;;;1.65;0.60;;;;;;;7.64;74.89;96848.13;1223574;75;2910398;-67
2023/12/24 01:15:58;;;;;;;0.80;0.50;;;;;;;7.33;77.88;96854.16;1225815;75;2914244;-69
2023/12/24 01:18:31;;;;;;;0.40;0.40;;;;;;;7.06;79.80;96866.88;1221412;75;2948178;-71
2023/12/24 01:21:03;;;;;;;1.05;0.70;;;;;;;7.20;79.96;96865.34;1225961;75;2901621;-68
2023/12/24 01:23:36;;;;;;;1.00;0.60;;;;;;;7.41;78.54;96879.78;1223096;75;2909810;-67
2023/12/24 01:26:12;;;;;;;0.60;0.50;;;;;;;7.41;78.73;96871.63;1225286;75;2919568;-66
2023/12/24 01:28:45;;;;;;;0.60;0.50;;;;;;;7.41;78.63;96879.78;1222632;75;2913981;-68
2023/12/24 01:31:19;;;;;;;0.65;0.55;;;;;;;7.30;79.73;96877.63;1225016;75;2909820;-68
2023/12/24 01:33:52;;;;;;;2.50;0.55;;;;;;;7.38;78.65;96878.72;1222001;75;2942921;-68
2023/12/24 01:36:25;;;;;;;0.55;0.40;;;;;;;7.40;79.36;96891.88;1225165;75;2919994;-68
2023/12/24 01:38:57;;;;;;;0.80;0.60;;;;;;;7.40;79.42;96894.59;1223617;75;2914288;-67
2023/12/24 01:41:33;;;;;;;2.00;1.10;;;;;;;6.77;83.26;96898.31;1224817;75;2908301;-67
2023/12/24 01:44:06;;;;;;;2.15;1.00;;;;;;;6.90;84.77;96898.03;1223333;75;2908946;-67
2023/12/24 01:46:39;;;;;;;2.15;0.90;;;;;;;6.78;86.26;96896.34;1224732;75;2913377;-68
2023/12/24 01:49:15;;;;;;;1.10;0.70;;;;;;;7.01;84.14;96911.06;1221887;75;2913868;-67
2023/12/24 01:51:48;;;;;;;1.80;0.80;;;;;;;6.87;85.16;96909.09;1224873;75;2915447;-70
2023/12/24 01:54:21;;;;;;;1.25;0.90;;;;;;;6.98;85.60;96903.84;1222096;75;2923070;-67
2023/12/24 01:56:56;;;;;;;1.25;0.90;;;;;;;6.63;88.20;96906.47;1225279;75;2912486;-67
2023/12/24 01:59:30;;;;;;;1.05;0.70;;;;;;;6.74;89.37;96903.94;1223237;75;2915239;-69
2023/12/24 02:02:03;;;;;;;1.20;0.80;;;;;;;6.91;86.40;96915.88;1223847;75;2918007;-67
2023/12/24 02:04:36;;;;;;;1.30;0.90;;;;;;;6.76;89.77;96909.69;1223293;75;2907670;-67
2023/12/24 02:07:10;;;;;;;0.65;0.55;;;;;;;6.88;88.98;96930.41;1224480;75;2914260;-71
2023/12/24 02:09:45;;;;;;;0.70;0.50;;;;;;;6.98;86.95;96926.38;1223675;75;2908698;-68
2023/12/24 02:12:20;;;;;;;0.70;0.60;;;;;;;7.02;86.05;96924.22;1224832;75;2910661;-68
2023/12/24 02:14:53;;;;;;;1.00;0.85;;;;;;;6.98;86.27;96923.66;1225555;75;2915141;-70
2023/12/24 02:17:27;;;;;;;0.50;0.50;;;;;;;6.94;88.16;96916.88;1223372;75;2931883;-67
2023/12/24 02:20:00;;;;;;;0.50;0.50;;;;;;;6.88;88.04;96905.16;1225115;75;2914754;-68
2023/12/24 02:22:35;;;;;;;0.80;0.55;;;;;;;6.84;88.70;96894.47;1222870;75;2923513;-70
2023/12/24 02:25:10;;;;;;;0.50;0.40;;;;;;;6.80;88.65;96891.94;1224580;75;2914896;-70
2023/12/24 02:27:55;;;;;;;0.70;0.50;;;;;;;6.86;88.34;96908.34;1222798;75;2914742;-68
2023/12/24 02:30:36;;;;;;;0.55;0.55;;;;;;;6.65;90.47;96909.47;1225398;75;2917134;-69
2023/12/24 02:33:12;;;;;;;1.25;0.70;;;;;;;6.63;89.77;96915.38;1223982;75;2926346;-69
2023/12/24 02:35:46;;;;;;;0.60;0.55;;;;;;;6.71;89.69;96913.78;1226013;75;2921905;-70
2023/12/24 02:38:21;;;;;;;0.85;0.65;;;;;;;6.40;93.25;96928.56;1223657;75;2922151;-69
2023/12/24 02:40:54;;;;;;;0.70;0.60;;;;;;;6.16;96.33;96919.69;1224954;75;2918671;-68
2023/12/24 02:43:27;;;;;;;1.20;0.80;;;;;;;6.43;92.47;96931.56;1222828;75;2922690;-67
2023/12/24 02:46:00;;;;;;;1.10;0.80;;;;;;;6.05;97.86;96924.88;1225162;75;2917261;-67
2023/12/24 02:48:33;;;;;;;1.15;0.85;;;;;;;6.07;97.52;96927.88;1222017;75;2918801;-68
2023/12/24 02:51:06;;;;;;;0.50;0.50;;;;;;;5.87;99.11;96931.13;1225414;75;2911349;-67
2023/12/24 02:53:41;;;;;;;3.05;0.80;;;;;;;5.85;100.00;96937.03;1223541;75;2924268;-67
2023/12/24 02:56:14;;;;;;;1.55;0.85;;;;;;;5.67;100.00;96937.88;1224544;75;2919153;-66
2023/12/24 02:58:47;;;;;;;0.90;0.60;;;;;;;5.82;99.59;96940.69;1222426;75;2924962;-66
2023/12/24 03:01:20;;;;;;;1.55;0.95;;;;;;;5.14;100.00;96949.22;1224925;75;2918185;-69
2023/12/24 03:03:53;;;;;;;1.85;1.10;;;;;;;5.49;100.00;96951.53;1222985;75;2910415;-69
2023/12/24 03:06:25;;;;;;;1.20;0.75;;;;;;;5.52;100.00;96953.34;1225239;75;2918612;-68
2023/12/24 03:09:01;;;;;;;1.10;0.80;;;;;;;5.52;100.00;96953.34;1223450;75;2916274;-65
2023/12/24 03:11:34;;;;;;;0.85;0.65;;;;;;;5.59;100.00;96949.53;1225332;75;2929276;-69
2023/12/24 03:14:06;;;;;;;1.75;1.00;;;;;;;5.11;100.00;96945.47;1222614;75;2929612;-67
2023/12/24 03:16:39;;;;;;;1.60;1.10;;;;;;;5.38;100.00;96946.59;1223726;75;2920652;-71
2023/12/24 03:19:12;;;;;;;1.85;0.90;;;;;;;5.26;100.00;96942.13;1222131;75;2914610;-69
2023/12/24 03:21:45;;;;;;;1.00;0.60;;;;;;;5.11;100.00;96947.44;1225144;75;2924561;-68
2023/12/24 03:24:21;;;;;;;1.05;0.80;;;;;;;5.30;100.00;96946.19;1223612;75;2917996;-68
2023/12/24 03:26:54;;;;;;;1.10;0.80;;;;;;;5.08;100.00;96951.06;1224655;75;2903993;-68
2023/12/24 03:29:27;;;;;;;0.85;0.70;;;;;;;4.78;100.00;96952.75;1222147;75;2914900;-68
2023/12/24 03:32:00;;;;;;;1.40;0.90;;;;;;;4.94;100.00;96949.72;1224230;75;2918443;-67
2023/12/24 03:34:32;;;;;;;0.55;0.50;;;;;;;4.74;100.00;96973.84;1222020;75;2920461;-68
2023/12/24 03:37:05;;;;;;;2.40;1.00;;;;;;;4.48;100.00;96955.94;1223628;75;2923841;-67
2023/12/24 03:39:41;;;;;;;1.60;0.90;;;;;;;4.67;100.00;96967.53;1224434;75;2916811;-67
2023/12/24 03:42:14;;;;;;;1.65;0.90;;;;;;;4.65;100.00;96961.06;1224939;75;2911066;-67
2023/12/24 03:44:46;;;;;;;1.00;0.80;;;;;;;4.77;100.00;96971.00;1225019;75;2916662;-67
2023/12/24 03:47:19;;;;;;;0.85;0.70;;;;;;;4.78;100.00;96969.03;1223578;75;2918515;-67
2023/12/24 03:49:52;;;;;;;0.75;0.55;;;;;;;4.64;100.00;96957.63;1223864;75;2916896;-66
2023/12/24 03:52:25;;;;;;;1.00;0.60;;;;;;;4.58;100.00;96964.84;1221762;75;2945420;-68
2023/12/24 03:55:00;;;;;;;0.90;0.60;;;;;;;4.74;100.00;96952.94;1223739;75;2918169;-67
2023/12/24 03:57:33;;;;;;;0.75;0.55;;;;;;;4.42;100.00;96957.00;1222535;75;2927004;-67
2023/12/24 04:00:07;;;;;;;0.95;0.70;;;;;;;4.63;100.00;96958.06;1225131;75;2916825;-66
2023/12/24 04:02:40;;;;;;;0.70;0.65;;;;;;;4.74;100.00;96954.88;1222875;75;2926886;-67
2023/12/24 04:05:13;;;;;;;0.80;0.80;;;;;;;4.42;100.00;96957.75;1224418;75;2931066;-70
2023/12/24 04:07:46;;;;;;;2.15;1.05;;;;;;;4.24;100.00;96980.16;1220673;75;2919989;-67
2023/12/24 04:10:21;;;;;;;1.65;1.20;;;;;;;4.48;100.00;96974.91;1224458;75;2931316;-69
2023/12/24 04:12:54;;;;;;;1.50;1.20;;;;;;;4.25;100.00;96981.66;1221728;75;2914840;-67
2023/12/24 04:15:27;;;;;;;1.65;1.10;;;;;;;4.39;100.00;96983.03;1223834;75;2919533;-66
2023/12/24 04:18:00;;;;;;;2.20;0.90;;;;;;;4.35;100.00;96984.38;1221890;75;2914277;-67
2023/12/24 04:20:33;;;;;;;2.90;0.90;;;;;;;4.42;100.00;96986.81;1223122;75;2917800;-67
2023/12/24 04:23:06;;;;;;;1.45;1.00;;;;;;;4.40;100.00;96976.44;1222156;75;2898566;-66
2023/12/24 04:25:42;;;;;;;1.15;0.80;;;;;;;4.57;100.00;96986.97;1223964;75;2919173;-66
2023/12/24 04:28:15;;;;;;;1.40;0.90;;;;;;;4.64;100.00;96989.38;1220738;75;2924031;-67
2023/12/24 04:30:48;;;;;;;0.75;0.70;;;;;;;4.60;100.00;97005.03;1224319;75;2926792;-68
2023/12/24 04:33:21;;;;;;;0.65;0.60;;;;;;;4.47;100.00;97005.16;1221735;75;2918649;-66
2023/12/24 04:35:54;;;;;;;1.10;0.60;;;;;;;4.47;100.00;96997.81;1224727;75;2923119;-66
2023/12/24 04:38:27;;;;;;;0.55;0.45;;;;;;;4.52;100.00;96999.16;1222022;75;2913222;-68
2023/12/24 04:41:02;;;;;;;1.00;0.80;;;;;;;4.51;100.00;97005.03;1224090;75;2931254;-66
2023/12/24 04:43:35;;;;;;;0.85;0.70;;;;;;;4.48;100.00;96999.31;1221535;75;2920510;-67
2023/12/24 04:46:08;;;;;;;0.60;0.60;;;;;;;4.51;100.00;96996.91;1223218;75;2920247;-68
2023/12/24 04:48:41;;;;;;;0.85;0.70;;;;;;;4.30;100.00;96999.28;1221553;75;2918456;-71
2023/12/24 04:51:15;;;;;;;0.60;0.60;;;;;;;4.58;100.00;97005.50;1223819;75;2923466;-67
2023/12/24 04:53:48;;;;;;;1.05;0.75;;;;;;;4.43;100.00;97018.88;1222136;75;2927421;-69
2023/12/24 04:56:27;;;;;;;1.35;0.80;;;;;;;4.52;100.00;97020.84;1224181;75;2916155;-68
2023/12/24 04:58:59;;;;;;;1.45;1.05;;;;;;;4.39;100.00;97025.66;1221928;75;2926832;-67
2023/12/24 05:01:32;;;;;;;1.35;0.90;;;;;;;4.21;100.00;97042.59;1224654;75;2926064;-71
2023/12/24 05:04:06;;;;;;;1.55;0.95;;;;;;;4.17;100.00;97034.63;1221867;75;2914766;-67
2023/12/24 05:06:39;;;;;;;1.40;0.80;;;;;;;4.41;100.00;97032.13;1224965;75;2926137;-69
2023/12/24 05:09:12;;;;;;;0.95;0.70;;;;;;;4.49;100.00;97033.34;1221774;75;2911722;-68
2023/12/24 05:11:47;;;;;;;0.70;0.70;;;;;;;4.47;100.00;97034.97;1223947;75;2922668;-67
2023/12/24 05:14:20;;;;;;;0.85;0.70;;;;;;;4.69;100.00;97034.88;1223355;75;2911055;-71
2023/12/24 05:16:53;;;;;;;0.70;0.70;;;;;;;4.67;100.00;97038.03;1224993;75;2913334;-66
2023/12/24 05:19:26;;;;;;;1.05;0.70;;;;;;;4.67;100.00;97037.28;1220768;75;2926776;-65
2023/12/24 05:21:59;;;;;;;0.60;0.60;;;;;;;4.66;100.00;97041.19;1223263;75;2926556;-67
2023/12/24 05:24:32;;;;;;;0.80;0.60;;;;;;;4.74;100.00;97039.69;1221432;75;2919911;-66
2023/12/24 05:27:08;;;;;;;0.50;0.50;;;;;;;4.86;100.00;97040.75;1224395;75;2923785;-67
2023/12/24 05:29:43;;;;;;;0.60;0.50;;;;;;;4.85;100.00;97039.97;1223040;75;2941228;-66
2023/12/24 05:32:15;;;;;;;0.60;0.50;;;;;;;4.81;100.00;97039.41;1223006;75;2921576;-65
2023/12/24 05:34:48;;;;;;;1.20;0.90;;;;;;;4.67;100.00;97045.41;1224169;75;2922876;-67
2023/12/24 05:37:21;;;;;;;0.95;0.80;;;;;;;4.89;100.00;97056.13;1222739;75;2928862;-67
2023/12/24 05:39:54;;;;;;;2.20;1.10;;;;;;;4.76;100.00;97071.78;1222327;75;2935054;-67
2023/12/24 05:42:29;;;;;;;1.45;0.80;;;;;;;4.84;100.00;97059.44;1222876;75;2916133;-66
2023/12/24 05:45:02;;;;;;;1.30;0.90;;;;;;;4.84;100.00;97062.91;1224621;75;2911196;-68
2023/12/24 05:47:35;;;;;;;1.30;0.80;;;;;;;4.68;100.00;97050.38;1221838;75;2913229;-65
2023/12/24 05:50:10;;;;;;;1.00;0.80;;;;;;;4.76;100.00;97045.41;1223810;75;2922103;-69
2023/12/24 05:52:43;;;;;;;1.00;0.80;;;;;;;4.84;100.00;97043.16;1221760;75;2914235;-67
2023/12/24 05:55:16;;;;;;;0.60;0.55;;;;;;;4.91;100.00;97054.47;1224300;75;2918928;-69
2023/12/24 05:57:51;;;;;;;1.85;0.75;;;;;;;4.80;100.00;97053.41;1221899;75;2925357;-68
2023/12/24 06:00:25;;;;;;;0.80;0.60;;;;;;;4.79;100.00;97060.78;1223221;75;2926008;-64
2023/12/24 06:02:57;;;;;;;0.75;0.70;;;;;;;4.53;100.00;97056.84;1221983;75;2920881;-66
2023/12/24 06:05:30;;;;;;;1.05;0.90;;;;;;;4.70;100.00;97064.22;1224502;75;2917939;-67
2023/12/24 06:08:03;;;;;;;0.95;0.70;;;;;;;4.81;100.00;97071.16;1222147;75;2917727;-66
2023/12/24 06:10:37;;;;;;;0.80;0.70;;;;;;;4.93;100.00;97073.00;1223736;75;2952880;-67
2023/12/24 06:13:13;;;;;;;1.35;0.95;;;;;;;4.69;100.00;97072.84;1222688;75;2924383;-66
2023/12/24 06:15:46;;;;;;;0.70;0.70;;;;;;;4.63;100.00;97069.94;1223895;75;2923390;-68
2023/12/24 06:18:19;;;;;;;1.30;1.15;;;;;;;4.76;100.00;97055.50;1222762;75;2913085;-68
2023/12/24 06:20:51;;;;;;;1.70;1.00;;;;;;;4.97;100.00;97057.31;1224181;75;2913488;-67
2023/12/24 06:23:24;;;;;;;1.20;0.90;;;;;;;4.99;100.00;97063.03;1222414;75;2924015;-70
2023/12/24 06:25:57;;;;;;;1.05;0.95;;;;;;;4.93;100.00;97061.38;1223537;75;2923506;-67
2023/12/24 06:28:32;;;;;;;1.75;1.10;;;;;;;4.68;100.00;97071.31;1222852;75;2926067;-65
2023/12/24 06:31:05;;;;;;;2.60;1.30;;;;;;;4.84;100.00;97071.03;1223803;75;2922592;-68
2023/12/24 06:33:38;;;;;;;1.50;1.05;;;;;;;5.01;100.00;97073.44;1222535;75;2922611;-68
2023/12/24 06:36:11;;;;;;;2.70;1.35;;;;;;;4.66;100.00;97079.13;1224443;75;2924742;-68
2023/12/24 06:38:45;;;;;;;2.00;1.20;;;;;;;4.84;100.00;97091.97;1219671;75;2917690;-66
2023/12/24 06:41:18;;;;;;;3.85;1.70;;;;;;;4.66;100.00;97081.84;1224223;75;2925293;-67
2023/12/24 06:43:54;;;;;;;1.80;1.25;;;;;;;4.98;100.00;97093.31;1222489;75;2924175;-66
2023/12/24 06:46:27;;;;;;;1.50;1.10;;;;;;;5.03;100.00;97092.75;1223350;83;2925164;-67
2023/12/24 06:49:00;;;;;;;2.80;1.75;;;;;;;4.89;100.00;97091.38;1222684;75;2924789;-68
2023/12/24 06:51:33;;;;;;;2.75;1.65;;;;;;;4.79;100.00;97100.72;1224644;75;2908252;-71
2023/12/24 06:54:06;;;;;;;2.55;1.50;;;;;;;4.83;100.00;97110.19;1223220;75;2920691;-68
2023/12/24 06:56:39;;;;;;;2.10;1.65;;;;;;;5.19;100.00;97102.53;1223151;75;3021056;-67
2023/12/24 06:59:14;;;;;;;1.90;1.40;;;;;;;5.34;100.00;97100.72;1222317;75;2918883;-69
2023/12/24 07:01:47;;;;;;;3.45;2.15;;;;;;;5.32;100.00;97108.56;1223387;75;2932475;-68
2023/12/24 07:04:20;;;;;;;4.10;2.65;;;;;;;4.96;100.00;97103.91;1221547;75;2911418;-68
2023/12/24 07:06:53;;;;;;;3.70;2.15;;;;;;;4.87;100.00;97113.50;1223095;75;2913679;-67
2023/12/24 07:09:26;;;;;;;2.85;1.95;;;;;;;4.66;100.00;97112.41;1220200;75;2924864;-68
2023/12/24 07:11:59;;;;;;;3.20;1.85;;;;;;;4.71;100.00;97113.78;1223348;75;2918158;-66
2023/12/24 07:14:34;;;;;;;3.20;1.85;;;;;;;5.09;100.00;97110.66;1222027;75;2918216;-65
2023/12/24 07:17:07;;;;;;;3.15;2.25;;;;;;;4.96;100.00;97103.91;1222968;75;2924785;-67
2023/12/24 07:19:40;;;;;;;5.35;3.40;;;;;;;5.05;100.00;97101.94;1222203;75;2920818;-68
2023/12/24 07:22:16;;;;;;;7.70;4.55;;;;;;;4.83;100.00;97090.44;1224362;75;2905004;-68
2023/12/24 07:24:49;;;;;;;5.10;3.25;;;;;;;5.19;100.00;97097.84;1221764;75;2940969;-67
2023/12/24 07:27:22;;;;;;;4.90;3.10;;;;;;;5.31;100.00;97093.47;1224675;75;2921355;-67
2023/12/24 07:29:57;;;;;;;4.90;2.75;;;;;;;5.32;100.00;97090.31;1221559;75;2924245;-66
2023/12/24 07:32:30;;;;;;;4.35;2.40;;;;;;;5.13;100.00;97091.53;1224940;75;2925099;-67
2023/12/24 07:35:03;;;;;;;28.40;18.40;;;;;;;5.03;100.00;97090.78;1220942;75;2910294;-68
2023/12/24 07:37:36;;;;;;;27.45;17.70;;;;;;;5.21;100.00;97097.41;1224404;75;2928118;-67
2023/12/24 07:40:11;;;;;;;25.40;19.00;;;;;;;5.57;100.00;97101.28;1221454;75;2926523;-66
2023/12/24 07:42:44;;;;;;;21.25;15.35;;;;;;;5.65;99.63;97100.53;1223842;75;2915000;-66
2023/12/24 07:45:20;;;;;;;19.70;15.05;;;;;;;5.39;100.00;97089.25;1221707;75;2917678;-67
2023/12/24 07:47:53;;;;;;;17.35;12.15;;;;;;;5.66;100.00;97102.03;1223589;75;2925998;-67
2023/12/24 07:50:26;;;;;;;14.00;9.30;;;;;;;5.74;97.79;97102.44;1222181;75;2917928;-69
2023/12/24 07:52:59;;;;;;;10.10;6.95;;;;;;;5.87;95.03;97094.09;1223037;75;2926494;-67
2023/12/24 07:55:33;;;;;;;8.25;5.75;;;;;;;6.19;92.89;97096.16;1220657;75;2924528;-67
2023/12/24 07:58:06;;;;;;;10.10;5.25;;;;;;;5.75;94.43;97091.16;1222685;75;2917304;-66
2023/12/24 08:00:42;;;;;;;12.45;7.50;;;;;;;5.91;97.33;97090.03;1220848;75;2916465;-67
2023/12/24 08:03:15;;;;;;;7.90;5.25;;;;;;;5.92;96.39;97091.53;1224083;75;2916337;-70
2023/12/24 08:05:48;;;;;;;10.35;5.40;;;;;;;5.73;97.68;97092.81;1217946;75;3170955;-67
2023/12/24 08:08:21;;;;;;;7.15;4.50;;;;;;;6.14;93.63;97099.50;1222973;75;2925995;-67
2023/12/24 08:10:54;;;;;;;7.50;5.05;;;;;;;5.77;97.87;97087.94;1221020;75;2916186;-68
2023/12/24 08:13:27;;;;;;;8.20;4.95;;;;;;;6.37;95.93;97084.44;1222501;75;2930104;-66
2023/12/24 08:16:02;;;;;;;7.30;4.65;;;;;;;6.34;97.06;97082.63;1222223;75;2938895;-69
2023/12/24 08:18:37;;;;;;;9.95;6.75;;;;;;;5.82;100.00;97098.22;1223764;75;2923500;-67
2023/12/24 08:21:10;;;;;;;10.25;7.10;;;;;;;5.47;100.00;97101.31;1222354;75;2929410;-64
2023/12/24 08:23:43;;;;;;;10.00;6.20;;;;;;;6.14;99.06;97104.19;1224517;75;2921770;-67
2023/12/24 08:26:18;;;;;;;9.35;5.90;;;;;;;6.25;97.44;97095.50;1220942;75;2927552;-66
2023/12/24 08:28:50;;;;;;;11.65;6.40;;;;;;;5.96;100.00;97103.03;1224092;75;2916557;-66
2023/12/24 08:31:27;;;;;;;9.95;5.30;;;;;;;6.31;96.36;97101.84;1220756;75;2915123;-67
2023/12/24 08:34:00;;;;;;;8.30;5.45;;;;;;;6.35;96.68;97116.78;1224600;75;2916419;-66
2023/12/24 08:36:32;;;;;;;10.85;6.70;;;;;;;6.15;99.18;97114.56;1221843;75;2921774;-67
2023/12/24 08:39:05;;;;;;;14.30;7.50;;;;;;;5.93;99.64;97103.16;1223711;75;2930130;-68
2023/12/24 08:41:38;;;;;;;11.80;6.20;;;;;;;6.43;95.94;97117.19;1223315;75;2950661;-66
2023/12/24 08:44:11;;;;;;;6.65;4.30;;;;;;;6.86;91.46;97117.09;1223573;75;2924345;-67
2023/12/24 08:46:48;;;;;;;9.85;4.85;;;;;;;6.45;91.62;97120.19;1223082;75;2917023;-67
2023/12/24 08:49:21;;;;;;;6.40;4.20;;;;;;;7.09;86.68;97126.44;1220505;75;2922428;-67
2023/12/24 08:51:54;;;;;;;4.55;3.05;;;;;;;7.15;84.45;97113.72;1224079;75;2920326;-68
2023/12/24 08:54:28;;;;;;;6.60;3.20;;;;;;;7.24;85.38;97113.66;1222504;75;2932410;-65
2023/12/24 08:57:01;;;;;;;6.55;3.65;;;;;;;7.20;86.14;97116.53;1223101;75;2923511;-71
2023/12/24 08:59:34;;;;;;;5.00;3.40;;;;;;;7.79;82.13;97115.09;1220526;75;2918623;-67
2023/12/24 09:02:09;;;;;;;5.35;3.60;;;;;;;7.72;81.22;97137.25;1223759;75;2921357;-65
2023/12/24 09:04:46;;;;;;;7.00;4.65;;;;;;;7.42;83.42;97129.81;1220889;75;2921313;-67
2023/12/24 09:07:19;;;;;;;7.00;4.20;;;;;;;7.99;80.79;97133.53;1223369;75;2924289;-68
2023/12/24 09:09:53;;;;;;;7.75;5.55;;;;;;;6.99;84.42;97131.22;1221895;75;2940076;-66
2023/12/24 09:12:26;;;;;;;8.75;5.40;;;;;;;7.82;83.56;97134.00;1224491;75;2925336;-67
2023/12/24 09:14:59;;;;;;;6.90;4.60;;;;;;;7.85;80.01;97129.56;1222842;83;2920026;-66
2023/12/24 09:17:34;;;;;;;7.20;5.05;;;;;;;7.87;79.83;97140.75;1225134;75;2915821;-67
2023/12/24 09:20:09;;;;;;;7.35;4.55;;;;;;;8.44;78.58;97126.81;1220507;75;2918587;-67
2023/12/24 09:22:41;;;;;;;5.70;3.95;;;;;;;9.27;77.26;97127.63;1224162;75;2913526;-66
2023/12/24 09:25:14;;;;;;;5.95;3.50;;;;;;;9.22;74.40;97120.84;1221887;75;2932457;-67
2023/12/24 09:27:47;;;;;;;4.40;2.80;;;;;;;9.69;73.99;97134.50;1224969;75;2931322;-67
2023/12/24 09:30:21;;;;;;;5.25;3.40;;;;;;;9.50;74.42;97121.16;1223289;83;2912655;-67
2023/12/24 09:32:56;;;;;;;6.70;3.65;;;;;;;9.96;72.44;97111.41;1224904;75;2927297;-68
2023/12/24 09:35:30;;;;;;;5.05;3.25;;;;;;;10.11;71.91;97128.41;1221983;75;2926788;-68
2023/12/24 09:38:02;;;;;;;3.95;2.45;;;;;;;10.37;70.98;97127.66;1224215;75;2913248;-66
2023/12/24 09:40:35;;;;;;;3.40;2.40;;;;;;;9.99;71.27;97127.56;1222606;75;2912559;-67
2023/12/24 09:43:09;;;;;;;5.65;3.50;;;;;;;10.15;72.37;97126.22;1223898;75;2926092;-67
2023/12/24 09:45:42;;;;;;;4.85;2.70;;;;;;;10.53;70.09;97123.50;1220343;75;2919188;-70
2023/12/24 09:48:17;;;;;;;3.05;2.30;;;;;;;10.95;69.19;97120.00;1222638;75;2921377;-68
2023/12/24 09:50:50;;;;;;;3.70;2.55;;;;;;;11.07;68.98;97132.50;1185309;75;5774721;-67
2023/12/24 09:53:23;;;;;;;4.50;2.90;;;;;;;11.33;68.27;97128.88;1192201;75;5329294;-69
2023/12/24 09:55:56;;;;;;;3.85;2.90;;;;;;;11.14;67.80;97127.81;1220919;75;2928352;-68
2023/12/24 09:58:30;;;;;;;4.70;3.00;;;;;;;11.75;68.09;97124.47;1221264;75;2958393;-70
2023/12/24 10:01:03;;;;;;;4.60;2.50;;;;;;;11.79;66.34;97132.47;1219635;75;2930390;-66
2023/12/24 10:03:40;;;;;;;4.30;2.65;;;;;;;11.32;66.74;97130.09;1223554;75;2923346;-67
2023/12/24 10:06:14;;;;;;;4.05;2.60;;;;;;;11.96;65.80;97138.75;1221272;75;2921266;-70
2023/12/24 10:08:47;;;;;;;4.75;2.95;;;;;;;11.40;66.29;97133.13;1222820;75;2919036;-67
2023/12/24 10:11:23;;;;;;;3.35;2.35;;;;;;;11.92;66.72;97130.00;1220923;75;2917225;-68
2023/12/24 10:14:04;;;;;;;4.20;2.55;;;;;;;12.34;63.54;97129.03;1222093;75;2961965;-67
2023/12/24 10:16:46;;;;;;;3.10;2.25;;;;;;;12.81;62.70;97133.19;1222801;75;2920843;-66
2023/12/24 10:19:28;;;;;;;5.05;2.25;;;;;;;12.11;63.54;97130.28;1221932;75;2922738;-69
2023/12/24 10:22:09;;;;;;;4.25;2.90;;;;;;;12.15;64.27;97130.78;1223332;75;2915368;-68
2023/12/24 10:24:44;;;;;;;4.05;2.80;;;;;;;11.98;64.27;97130.78;1221645;75;2937765;-68
2023/12/24 10:27:17;;;;;;;4.40;3.00;;;;;;;12.56;62.48;97114.50;1223694;75;2924999;-68
2023/12/24 10:29:50;;;;;;;5.05;3.25;;;;;;;12.53;61.18;97139.47;1222460;75;2923567;-69
2023/12/24 10:32:27;;;;;;;10.65;7.60;;;;;;;11.96;62.60;97122.28;1224532;75;2920583;-69
2023/12/24 10:35:05;;;;;;;7.10;5.05;;;;;;;11.92;64.53;97108.06;1222023;75;2924710;-70
2023/12/24 10:37:38;;;;;;;;;;;;;;;11.87;64.50;97100.59;1225336;75;2927809;-66
2023/12/24 10:40:13;;;;;;;6.05;3.70;;;;;;;12.48;62.61;97094.31;1222448;75;2922237;-68
2023/12/24 10:42:45;;;;;;;5.80;3.55;;;;;;;12.25;64.05;97110.06;1223047;75;2922657;-68
2023/12/24 10:45:18;;;;;;;4.85;3.50;;;;;;;11.75;63.81;97110.03;1222926;75;2921603;-68
2023/12/24 10:47:51;;;;;;;4.65;3.10;;;;;;;12.02;63.14;97100.34;1223656;75;2896711;-68
2023/12/24 10:50:27;;;;;;;4.35;3.05;;;;;;;12.11;62.21;97092.59;1222808;75;2918872;-67
2023/12/24 10:52:59;;;;;;;4.15;2.80;;;;;;;13.20;61.25;97087.09;1223229;75;2918387;-67
2023/12/24 10:55:35;;;;;;;4.15;2.75;;;;;;;13.35;59.88;97080.56;1221305;75;2920117;-70
2023/12/24 10:58:20;;;;;;;3.60;2.50;;;;;;;13.10;60.03;97088.63;1222126;75;2937987;-67
2023/12/24 11:00:53;;;;;;;3.70;2.65;;;;;;;13.29;60.09;97080.56;1222261;75;2918460;-66
2023/12/24 11:03:47;;;;;;;5.10;3.10;;;;;;;13.64;59.59;97085.34;1223498;75;2925169;-68
2023/12/24 11:06:53;;;;;;;3.65;2.40;;;;;;;13.73;58.48;97078.78;1220662;75;2936076;-70
2023/12/24 11:09:50;;;;;;;4.25;2.65;;;;;;;13.92;59.94;97078.88;1223386;75;2924412;-70
2023/12/24 11:12:36;;;;;;;5.40;3.80;;;;;;;14.03;58.62;97073.31;1221268;75;2938157;-68
2023/12/24 11:15:09;;;;;;;5.45;3.70;;;;;;;13.84;59.56;97064.94;1223685;75;2917887;-67
2023/12/24 11:17:54;;;;;;;5.00;3.65;;;;;;;14.08;59.23;97069.03;1222566;75;2919589;-68
2023/12/24 11:20:41;;;;;;;5.30;3.60;;;;;;;14.21;59.12;97060.13;1222374;75;2920185;-67
2023/12/24 11:23:18;;;;;;;3.80;2.65;;;;;;;14.54;58.14;97069.38;1223666;75;2922778;-68
2023/12/24 11:25:53;;;;;;;5.05;3.10;;;;;;;13.70;59.87;97071.56;1221504;75;2927365;-67
2023/12/24 11:28:47;;;;;;;4.55;2.85;;;;;;;14.52;59.15;97058.81;1223674;75;2917379;-69
2023/12/24 11:31:28;;;;;;;5.85;4.20;;;;;;;14.46;59.40;97047.13;1222047;75;2913908;-68
2023/12/24 11:33:59;;;;;;;5.35;3.15;;;;;;;14.48;59.24;97041.88;1224289;75;2918694;-68
2023/12/24 11:36:32;;;;;;;8.55;5.80;;;;;;;14.14;59.24;97033.19;1222446;75;2915109;-69
2023/12/24 11:39:08;;;;;;;7.05;4.20;;;;;;;14.40;58.72;97029.91;1223618;75;2919337;-68
2023/12/24 11:41:40;;;;;;;5.35;3.40;;;;;;;14.07;60.44;97018.00;1222078;75;2926781;-69
2023/12/24 11:44:13;;;;;;;4.50;3.05;;;;;;;14.09;59.81;97014.72;1224770;75;2921010;-69
2023/12/24 11:46:49;;;;;;;6.95;3.65;;;;;;;12.72;61.98;97011.38;1222738;75;2927395;-69
2023/12/24 11:49:23;;;;;;;5.75;4.05;;;;;;;12.32;63.54;97010.75;1224558;75;2914228;-68
2023/12/24 11:51:55;;;;;;;8.55;4.55;;;;;;;12.13;65.96;96998.81;1222999;75;2923269;-68